sensor_id;sensor_type;location;lat;lon;timestamp;temperature;humidity
12452;DHT22;6291;48.924;12.204;2023-03-30T00:02:47;6.90;1.00
12452;DHT22;6291;48.924;12.204;2023-03-30T00:07:53;6.90;1.00
12452;DHT22;6291;48.924;12.204;2023-03-30T00:12:57;6.90;99.90
12452;DHT22;6291;48.924;12.204;2023-03-30T00:18:00;6.90;1.00
12452;DHT22;6291;48.924;12.204;2023-03-30T00:23:06;7.00;99.90
12452;DHT22;6291;48.924;12.204;2023-03-30T00:28:10;6.80;1.00
12452;DHT22;6291;48.924;12.204;2023-03-30T00:33:13;6.90;1.00
12452;DHT22;6291;48.924;12.204;2023-03-30T00:38:18;7.00;1.00
12452;DHT22;6291;48.924;12.204;2023-03-30T00:43:23;6.90;99.90
12452;DHT22;6291;48.924;12.204;2023-03-30T00:48:28;7.00;1.00
12452;DHT22;6291;48.924;12.204;2023-03-30T00:53:40;7.00;99.90
12452;DHT22;6291;48.924;12.204;2023-03-30T00:58:45;7.00;53.00
12452;DHT22;6291;48.924;12.204;2023-03-30T01:03:49;7.00;1.00
12452;DHT22;6291;48.924;12.204;2023-03-30T01:08:55;6.90;99.90
12452;DHT22;6291;48.924;12.204;2023-03-30T01:14:04;7.00;1.00
12452;DHT22;6291;48.924;12.204;2023-03-30T01:19:26;7.00;99.90
12452;DHT22;6291;48.924;12.204;2023-03-30T01:25:14;7.00;99.90
12452;DHT22;6291;48.924;12.204;2023-03-30T01:30:30;7.10;99.90
12452;DHT22;6291;48.924;12.204;2023-03-30T01:35:50;7.10;99.90
12452;DHT22;6291;48.924;12.204;2023-03-30T01:41:05;7.10;99.90
12452;DHT22;6291;48.924;12.204;2023-03-30T01:46:16;7.10;1.00
12452;DHT22;6291;48.924;12.204;2023-03-30T01:51:30;7.10;23.60
12452;DHT22;6291;48.924;12.204;2023-03-30T01:56:38;7.00;1.00
12452;DHT22;6291;48.924;12.204;2023-03-30T02:01:44;6.90;6.20
12452;DHT22;6291;48.924;12.204;2023-03-30T02:06:55;7.00;1.00
12452;DHT22;6291;48.924;12.204;2023-03-30T02:12:03;7.00;1.00
12452;DHT22;6291;48.924;12.204;2023-03-30T02:17:12;7.70;1.00
12452;DHT22;6291;48.924;12.204;2023-03-30T02:22:19;8.50;99.90
12452;DHT22;6291;48.924;12.204;2023-03-30T02:27:24;7.20;1.00
12452;DHT22;6291;48.924;12.204;2023-03-30T02:32:39;7.20;99.90
12452;DHT22;6291;48.924;12.204;2023-03-30T02:38:02;7.10;1.00
12452;DHT22;6291;48.924;12.204;2023-03-30T02:43:31;7.20;99.90
12452;DHT22;6291;48.924;12.204;2023-03-30T02:48:40;7.10;1.00
12452;DHT22;6291;48.924;12.204;2023-03-30T02:53:53;7.10;1.00
12452;DHT22;6291;48.924;12.204;2023-03-30T02:59:25;7.00;99.90
12452;DHT22;6291;48.924;12.204;2023-03-30T03:04:29;7.00;99.90
12452;DHT22;6291;48.924;12.204;2023-03-30T03:10:01;6.90;99.90
12452;DHT22;6291;48.924;12.204;2023-03-30T03:15:07;6.90;1.00
12452;DHT22;6291;48.924;12.204;2023-03-30T03:20:22;6.80;25.80
12452;DHT22;6291;48.924;12.204;2023-03-30T03:25:29;6.60;1.00
12452;DHT22;6291;48.924;12.204;2023-03-30T03:30:39;6.80;99.90
12452;DHT22;6291;48.924;12.204;2023-03-30T03:35:49;6.80;99.90
12452;DHT22;6291;48.924;12.204;2023-03-30T03:40:57;6.70;99.90
12452;DHT22;6291;48.924;12.204;2023-03-30T03:46:05;6.90;99.90
12452;DHT22;6291;48.924;12.204;2023-03-30T03:51:09;6.90;79.20
12452;DHT22;6291;48.924;12.204;2023-03-30T03:56:12;9.10;32.70
12452;DHT22;6291;48.924;12.204;2023-03-30T04:01:18;7.00;1.00
12452;DHT22;6291;48.924;12.204;2023-03-30T04:06:22;7.00;1.00
12452;DHT22;6291;48.924;12.204;2023-03-30T04:11:26;7.00;1.00
12452;DHT22;6291;48.924;12.204;2023-03-30T04:17:03;6.80;1.00
12452;DHT22;6291;48.924;12.204;2023-03-30T04:22:33;6.90;1.00
12452;DHT22;6291;48.924;12.204;2023-03-30T04:27:58;6.70;62.50
12452;DHT22;6291;48.924;12.204;2023-03-30T04:33:21;6.80;90.60
12452;DHT22;6291;48.924;12.204;2023-03-30T04:38:38;4.30;16.20
12452;DHT22;6291;48.924;12.204;2023-03-30T04:44:08;6.80;1.00
12452;DHT22;6291;48.924;12.204;2023-03-30T04:49:33;6.90;1.00
12452;DHT22;6291;48.924;12.204;2023-03-30T04:54:55;7.00;1.00
12452;DHT22;6291;48.924;12.204;2023-03-30T05:00:18;7.00;1.00
12452;DHT22;6291;48.924;12.204;2023-03-30T05:05:40;7.10;1.00
12452;DHT22;6291;48.924;12.204;2023-03-30T05:11:02;7.30;1.00
12452;DHT22;6291;48.924;12.204;2023-03-30T05:16:26;7.10;1.00
12452;DHT22;6291;48.924;12.204;2023-03-30T05:21:43;7.20;1.00
12452;DHT22;6291;48.924;12.204;2023-03-30T05:27:06;7.00;1.00
12452;DHT22;6291;48.924;12.204;2023-03-30T05:32:33;7.00;1.00
12452;DHT22;6291;48.924;12.204;2023-03-30T05:37:49;7.10;1.00
12452;DHT22;6291;48.924;12.204;2023-03-30T05:43:12;7.10;1.00
12452;DHT22;6291;48.924;12.204;2023-03-30T05:48:27;7.20;1.00
12452;DHT22;6291;48.924;12.204;2023-03-30T05:53:51;7.30;1.00
12452;DHT22;6291;48.924;12.204;2023-03-30T05:59:13;7.30;1.00
12452;DHT22;6291;48.924;12.204;2023-03-30T06:04:35;7.30;1.00
12452;DHT22;6291;48.924;12.204;2023-03-30T06:09:40;7.20;1.00
12452;DHT22;6291;48.924;12.204;2023-03-30T06:14:55;7.50;1.00
12452;DHT22;6291;48.924;12.204;2023-03-30T06:20:33;7.60;1.00
12452;DHT22;6291;48.924;12.204;2023-03-30T06:25:38;8.70;1.00
12452;DHT22;6291;48.924;12.204;2023-03-30T06:30:42;7.30;1.00
12452;DHT22;6291;48.924;12.204;2023-03-30T06:35:49;7.20;2.00
12452;DHT22;6291;48.924;12.204;2023-03-30T06:40:57;8.10;62.90
12452;DHT22;6291;48.924;12.204;2023-03-30T06:46:03;7.30;99.90
12452;DHT22;6291;48.924;12.204;2023-03-30T06:51:07;7.20;99.90
12452;DHT22;6291;48.924;12.204;2023-03-30T06:56:12;7.40;99.90
12452;DHT22;6291;48.924;12.204;2023-03-30T07:01:33;7.50;99.90
12452;DHT22;6291;48.924;12.204;2023-03-30T07:07:04;8.50;99.90
12452;DHT22;6291;48.924;12.204;2023-03-30T07:12:09;7.60;99.90
12452;DHT22;6291;48.924;12.204;2023-03-30T07:17:12;7.80;99.90
12452;DHT22;6291;48.924;12.204;2023-03-30T07:22:16;8.10;99.90
12452;DHT22;6291;48.924;12.204;2023-03-30T07:27:21;8.10;99.90
12452;DHT22;6291;48.924;12.204;2023-03-30T07:32:29;8.20;99.90
12452;DHT22;6291;48.924;12.204;2023-03-30T07:37:33;8.30;99.90
12452;DHT22;6291;48.924;12.204;2023-03-30T07:42:40;8.50;99.90
12452;DHT22;6291;48.924;12.204;2023-03-30T07:47:44;8.70;99.90
12452;DHT22;6291;48.924;12.204;2023-03-30T07:52:50;10.40;99.90
12452;DHT22;6291;48.924;12.204;2023-03-30T07:57:55;9.00;99.90
12452;DHT22;6291;48.924;12.204;2023-03-30T08:02:59;9.00;99.90
12452;DHT22;6291;48.924;12.204;2023-03-30T08:08:04;9.10;99.90
12452;DHT22;6291;48.924;12.204;2023-03-30T08:13:11;9.30;99.90
12452;DHT22;6291;48.924;12.204;2023-03-30T08:18:14;9.40;99.90
12452;DHT22;6291;48.924;12.204;2023-03-30T08:23:18;9.40;99.90
12452;DHT22;6291;48.924;12.204;2023-03-30T08:28:23;9.10;99.90
12452;DHT22;6291;48.924;12.204;2023-03-30T08:33:27;8.80;99.90
12452;DHT22;6291;48.924;12.204;2023-03-30T08:38:30;9.00;99.90
12452;DHT22;6291;48.924;12.204;2023-03-30T08:43:45;9.10;99.90
12452;DHT22;6291;48.924;12.204;2023-03-30T08:48:54;9.10;99.90
12452;DHT22;6291;48.924;12.204;2023-03-30T08:54:02;9.00;99.90
12452;DHT22;6291;48.924;12.204;2023-03-30T08:59:17;9.10;99.90
12452;DHT22;6291;48.924;12.204;2023-03-30T09:04:28;8.90;99.90
12452;DHT22;6291;48.924;12.204;2023-03-30T09:09:39;9.20;99.90
12452;DHT22;6291;48.924;12.204;2023-03-30T09:14:48;9.10;99.90
12452;DHT22;6291;48.924;12.204;2023-03-30T09:19:55;9.20;99.90
12452;DHT22;6291;48.924;12.204;2023-03-30T09:24:59;9.60;99.90
12452;DHT22;6291;48.924;12.204;2023-03-30T09:30:14;9.80;99.90
12452;DHT22;6291;48.924;12.204;2023-03-30T09:35:22;10.00;99.90
12452;DHT22;6291;48.924;12.204;2023-03-30T09:40:35;10.50;99.90
12452;DHT22;6291;48.924;12.204;2023-03-30T09:45:46;10.30;99.90
12452;DHT22;6291;48.924;12.204;2023-03-30T09:50:49;10.20;99.90
12452;DHT22;6291;48.924;12.204;2023-03-30T09:55:57;10.90;99.90
12452;DHT22;6291;48.924;12.204;2023-03-30T10:01:08;10.50;99.90
12452;DHT22;6291;48.924;12.204;2023-03-30T10:06:16;10.40;99.90
12452;DHT22;6291;48.924;12.204;2023-03-30T10:11:31;10.40;99.90
12452;DHT22;6291;48.924;12.204;2023-03-30T10:16:43;10.40;99.90
12452;DHT22;6291;48.924;12.204;2023-03-30T10:21:47;10.50;99.90
12452;DHT22;6291;48.924;12.204;2023-03-30T10:26:51;10.50;99.90
12452;DHT22;6291;48.924;12.204;2023-03-30T10:32:00;10.50;99.90
12452;DHT22;6291;48.924;12.204;2023-03-30T10:37:08;10.40;99.90
12452;DHT22;6291;48.924;12.204;2023-03-30T10:42:15;10.50;99.90
12452;DHT22;6291;48.924;12.204;2023-03-30T10:47:38;10.50;99.90
12452;DHT22;6291;48.924;12.204;2023-03-30T10:52:54;10.50;99.90
12452;DHT22;6291;48.924;12.204;2023-03-30T10:58:10;10.50;99.90
12452;DHT22;6291;48.924;12.204;2023-03-30T11:03:21;10.50;99.90
12452;DHT22;6291;48.924;12.204;2023-03-30T11:08:30;10.50;99.90
12452;DHT22;6291;48.924;12.204;2023-03-30T11:13:39;10.70;99.90
12452;DHT22;6291;48.924;12.204;2023-03-30T11:18:51;10.60;99.90
12452;DHT22;6291;48.924;12.204;2023-03-30T11:23:57;10.30;99.90
12452;DHT22;6291;48.924;12.204;2023-03-30T11:29:08;10.70;99.90
12452;DHT22;6291;48.924;12.204;2023-03-30T11:34:28;10.80;99.90
12452;DHT22;6291;48.924;12.204;2023-03-30T11:39:35;11.10;99.90
12452;DHT22;6291;48.924;12.204;2023-03-30T11:44:41;10.50;99.90
12452;DHT22;6291;48.924;12.204;2023-03-30T11:49:59;10.40;99.90
12452;DHT22;6291;48.924;12.204;2023-03-30T11:55:26;10.20;99.90
12452;DHT22;6291;48.924;12.204;2023-03-30T12:00:40;10.30;99.90
12452;DHT22;6291;48.924;12.204;2023-03-30T12:05:50;10.30;99.90
12452;DHT22;6291;48.924;12.204;2023-03-30T12:11:01;10.30;99.90
12452;DHT22;6291;48.924;12.204;2023-03-30T12:16:11;10.40;99.90
12452;DHT22;6291;48.924;12.204;2023-03-30T12:21:27;10.40;99.90
12452;DHT22;6291;48.924;12.204;2023-03-30T12:26:33;10.40;99.90
12452;DHT22;6291;48.924;12.204;2023-03-30T12:32:01;10.60;99.90
12452;DHT22;6291;48.924;12.204;2023-03-30T12:37:11;10.90;99.90
12452;DHT22;6291;48.924;12.204;2023-03-30T12:42:20;10.90;99.90
12452;DHT22;6291;48.924;12.204;2023-03-30T12:47:52;11.10;99.90
12452;DHT22;6291;48.924;12.204;2023-03-30T12:58:59;11.40;99.90
12452;DHT22;6291;48.924;12.204;2023-03-30T13:04:05;11.60;99.90
12452;DHT22;6291;48.924;12.204;2023-03-30T13:15:00;11.50;99.90
12452;DHT22;6291;48.924;12.204;2023-03-30T13:20:14;11.50;99.90
12452;DHT22;6291;48.924;12.204;2023-03-30T13:25:39;11.40;99.90
12452;DHT22;6291;48.924;12.204;2023-03-30T13:30:46;11.70;99.90
12452;DHT22;6291;48.924;12.204;2023-03-30T13:35:57;11.70;99.90
12452;DHT22;6291;48.924;12.204;2023-03-30T13:41:16;11.90;99.90
12452;DHT22;6291;48.924;12.204;2023-03-30T13:46:29;12.20;99.90
12452;DHT22;6291;48.924;12.204;2023-03-30T13:51:35;12.40;3.50
12452;DHT22;6291;48.924;12.204;2023-03-30T13:56:44;12.50;1.00
12452;DHT22;6291;48.924;12.204;2023-03-30T14:01:53;12.40;1.00
12452;DHT22;6291;48.924;12.204;2023-03-30T14:07:04;12.40;1.00
12452;DHT22;6291;48.924;12.204;2023-03-30T14:12:07;12.70;1.00
12452;DHT22;6291;48.924;12.204;2023-03-30T14:17:18;12.60;1.00
12452;DHT22;6291;48.924;12.204;2023-03-30T14:22:25;12.80;99.90
12452;DHT22;6291;48.924;12.204;2023-03-30T14:27:33;13.80;1.00
12452;DHT22;6291;48.924;12.204;2023-03-30T14:32:39;14.10;1.00
12452;DHT22;6291;48.924;12.204;2023-03-30T14:37:42;13.50;99.90
12452;DHT22;6291;48.924;12.204;2023-03-30T14:42:53;13.20;99.90
12452;DHT22;6291;48.924;12.204;2023-03-30T14:47:57;13.70;99.90
12452;DHT22;6291;48.924;12.204;2023-03-30T14:53:01;13.50;99.90
12452;DHT22;6291;48.924;12.204;2023-03-30T14:58:04;13.10;1.00
12452;DHT22;6291;48.924;12.204;2023-03-30T15:03:10;13.10;99.90
12452;DHT22;6291;48.924;12.204;2023-03-30T15:08:36;13.40;99.90
12452;DHT22;6291;48.924;12.204;2023-03-30T15:13:44;12.90;1.00
12452;DHT22;6291;48.924;12.204;2023-03-30T15:18:52;13.00;1.00
12452;DHT22;6291;48.924;12.204;2023-03-30T15:23:58;13.10;1.00
12452;DHT22;6291;48.924;12.204;2023-03-30T15:29:02;13.20;99.90
12452;DHT22;6291;48.924;12.204;2023-03-30T15:34:13;13.40;99.90
12452;DHT22;6291;48.924;12.204;2023-03-30T15:39:19;13.60;99.90
12452;DHT22;6291;48.924;12.204;2023-03-30T15:44:23;13.80;1.00
12452;DHT22;6291;48.924;12.204;2023-03-30T15:49:31;13.70;1.00
12452;DHT22;6291;48.924;12.204;2023-03-30T15:54:40;14.50;1.00
12452;DHT22;6291;48.924;12.204;2023-03-30T15:59:48;14.40;1.00
12452;DHT22;6291;48.924;12.204;2023-03-30T16:04:54;15.20;1.00
12452;DHT22;6291;48.924;12.204;2023-03-30T16:09:58;14.10;1.00
12452;DHT22;6291;48.924;12.204;2023-03-30T16:15:01;14.40;1.00
12452;DHT22;6291;48.924;12.204;2023-03-30T16:20:14;13.90;1.00
12452;DHT22;6291;48.924;12.204;2023-03-30T16:25:19;13.50;1.00
12452;DHT22;6291;48.924;12.204;2023-03-30T16:30:31;13.40;1.00
12452;DHT22;6291;48.924;12.204;2023-03-30T16:35:37;13.20;1.00
12452;DHT22;6291;48.924;12.204;2023-03-30T16:40:43;13.20;1.00
12452;DHT22;6291;48.924;12.204;2023-03-30T16:45:47;13.10;1.00
12452;DHT22;6291;48.924;12.204;2023-03-30T16:50:54;13.00;1.00
12452;DHT22;6291;48.924;12.204;2023-03-30T16:55:59;12.90;1.00
12452;DHT22;6291;48.924;12.204;2023-03-30T17:01:03;12.80;99.90
12452;DHT22;6291;48.924;12.204;2023-03-30T17:06:09;12.70;99.90
12452;DHT22;6291;48.924;12.204;2023-03-30T17:11:13;12.30;99.90
12452;DHT22;6291;48.924;12.204;2023-03-30T17:16:18;12.40;29.20
12452;DHT22;6291;48.924;12.204;2023-03-30T17:21:24;12.30;1.00
12452;DHT22;6291;48.924;12.204;2023-03-30T17:26:27;12.30;1.00
12452;DHT22;6291;48.924;12.204;2023-03-30T17:31:31;12.10;1.00
12452;DHT22;6291;48.924;12.204;2023-03-30T17:36:36;11.90;1.00
12452;DHT22;6291;48.924;12.204;2023-03-30T17:41:39;11.90;1.00
12452;DHT22;6291;48.924;12.204;2023-03-30T17:46:42;11.80;1.00
12452;DHT22;6291;48.924;12.204;2023-03-30T17:51:47;11.70;1.00
12452;DHT22;6291;48.924;12.204;2023-03-30T17:56:51;11.70;1.00
12452;DHT22;6291;48.924;12.204;2023-03-30T18:02:02;11.60;1.00
12452;DHT22;6291;48.924;12.204;2023-03-30T18:07:09;11.30;1.00
12452;DHT22;6291;48.924;12.204;2023-03-30T18:12:13;11.20;1.00
12452;DHT22;6291;48.924;12.204;2023-03-30T18:17:17;11.10;1.00
12452;DHT22;6291;48.924;12.204;2023-03-30T18:22:22;11.00;1.00
12452;DHT22;6291;48.924;12.204;2023-03-30T18:27:25;11.00;1.00
12452;DHT22;6291;48.924;12.204;2023-03-30T18:32:28;10.80;1.00
12452;DHT22;6291;48.924;12.204;2023-03-30T18:37:49;11.40;1.00
12452;DHT22;6291;48.924;12.204;2023-03-30T18:42:55;10.60;1.00
12452;DHT22;6291;48.924;12.204;2023-03-30T18:47:59;11.60;1.00
12452;DHT22;6291;48.924;12.204;2023-03-30T18:53:06;11.40;1.00
12452;DHT22;6291;48.924;12.204;2023-03-30T18:58:12;10.30;1.00
12452;DHT22;6291;48.924;12.204;2023-03-30T19:03:17;10.30;1.00
12452;DHT22;6291;48.924;12.204;2023-03-30T19:08:23;10.10;1.00
12452;DHT22;6291;48.924;12.204;2023-03-30T19:13:27;10.00;19.90
12452;DHT22;6291;48.924;12.204;2023-03-30T19:18:30;9.90;99.90
12452;DHT22;6291;48.924;12.204;2023-03-30T19:23:35;9.80;99.90
12452;DHT22;6291;48.924;12.204;2023-03-30T19:28:39;9.80;1.00
12452;DHT22;6291;48.924;12.204;2023-03-30T19:33:42;9.70;1.00
12452;DHT22;6291;48.924;12.204;2023-03-30T19:38:47;9.60;1.00
12452;DHT22;6291;48.924;12.204;2023-03-30T19:43:51;9.50;99.90
12452;DHT22;6291;48.924;12.204;2023-03-30T19:48:54;9.40;1.00
12452;DHT22;6291;48.924;12.204;2023-03-30T19:53:59;9.40;99.90
12452;DHT22;6291;48.924;12.204;2023-03-30T19:59:02;9.40;99.90
12452;DHT22;6291;48.924;12.204;2023-03-30T20:04:06;9.30;99.90
12452;DHT22;6291;48.924;12.204;2023-03-30T20:09:11;9.40;99.90
12452;DHT22;6291;48.924;12.204;2023-03-30T20:14:15;9.50;1.00
12452;DHT22;6291;48.924;12.204;2023-03-30T20:19:18;9.50;99.90
12452;DHT22;6291;48.924;12.204;2023-03-30T20:24:32;9.40;1.00
12452;DHT22;6291;48.924;12.204;2023-03-30T20:29:35;9.20;99.90
12452;DHT22;6291;48.924;12.204;2023-03-30T20:34:39;9.00;99.90
12452;DHT22;6291;48.924;12.204;2023-03-30T20:39:44;9.50;99.90
12452;DHT22;6291;48.924;12.204;2023-03-30T20:44:50;9.00;1.00
12452;DHT22;6291;48.924;12.204;2023-03-30T20:49:54;9.00;1.00
12452;DHT22;6291;48.924;12.204;2023-03-30T20:54:59;8.80;1.00
12452;DHT22;6291;48.924;12.204;2023-03-30T21:00:03;8.40;1.00
12452;DHT22;6291;48.924;12.204;2023-03-30T21:05:08;8.50;99.90
12452;DHT22;6291;48.924;12.204;2023-03-30T21:10:13;8.60;1.00
12452;DHT22;6291;48.924;12.204;2023-03-30T21:15:17;8.70;1.00
12452;DHT22;6291;48.924;12.204;2023-03-30T21:20:20;9.30;1.00
12452;DHT22;6291;48.924;12.204;2023-03-30T21:25:27;9.70;1.00
12452;DHT22;6291;48.924;12.204;2023-03-30T21:30:30;9.20;99.90
12452;DHT22;6291;48.924;12.204;2023-03-30T21:35:35;9.10;1.00
12452;DHT22;6291;48.924;12.204;2023-03-30T21:40:40;9.00;1.00
12452;DHT22;6291;48.924;12.204;2023-03-30T21:45:50;9.20;99.90
12452;DHT22;6291;48.924;12.204;2023-03-30T21:50:57;10.80;1.00
12452;DHT22;6291;48.924;12.204;2023-03-30T21:56:03;8.80;99.90
12452;DHT22;6291;48.924;12.204;2023-03-30T22:01:08;6.80;95.40
12452;DHT22;6291;48.924;12.204;2023-03-30T22:06:14;8.60;1.00
12452;DHT22;6291;48.924;12.204;2023-03-30T22:11:21;8.40;7.80
12452;DHT22;6291;48.924;12.204;2023-03-30T22:16:26;8.40;99.90
12452;DHT22;6291;48.924;12.204;2023-03-30T22:21:32;8.50;99.90
12452;DHT22;6291;48.924;12.204;2023-03-30T22:26:38;8.50;96.70
12452;DHT22;6291;48.924;12.204;2023-03-30T22:31:41;8.40;83.30
12452;DHT22;6291;48.924;12.204;2023-03-30T22:36:44;8.30;69.70
12452;DHT22;6291;48.924;12.204;2023-03-30T22:41:49;8.20;7.70
12452;DHT22;6291;48.924;12.204;2023-03-30T22:46:53;8.10;1.00
12452;DHT22;6291;48.924;12.204;2023-03-30T22:51:58;7.90;99.90
12452;DHT22;6291;48.924;12.204;2023-03-30T22:57:05;8.20;49.40
12452;DHT22;6291;48.924;12.204;2023-03-30T23:02:08;4.10;4.70
12452;DHT22;6291;48.924;12.204;2023-03-30T23:07:12;8.10;78.70
12452;DHT22;6291;48.924;12.204;2023-03-30T23:12:17;7.70;99.90
12452;DHT22;6291;48.924;12.204;2023-03-30T23:17:20;7.70;99.90
12452;DHT22;6291;48.924;12.204;2023-03-30T23:22:25;9.00;99.90
12452;DHT22;6291;48.924;12.204;2023-03-30T23:27:35;7.60;99.90
12452;DHT22;6291;48.924;12.204;2023-03-30T23:32:39;7.40;34.90
12452;DHT22;6291;48.924;12.204;2023-03-30T23:37:42;8.50;1.00
12452;DHT22;6291;48.924;12.204;2023-03-30T23:42:47;7.20;1.00
12452;DHT22;6291;48.924;12.204;2023-03-30T23:47:51;7.30;1.00
12452;DHT22;6291;48.924;12.204;2023-03-30T23:52:54;7.20;1.00
12452;DHT22;6291;48.924;12.204;2023-03-30T23:58:00;6.90;75.80
